createdAt,value
2023-04-20T00:07:42.208Z,29.30
2023-04-20T00:22:45.070Z,29.80
2023-04-20T00:37:47.716Z,29.80
2023-04-20T01:07:53.576Z,26.10
2023-04-20T02:08:04.485Z,20.50
2023-04-20T02:23:07.570Z,19.80
2023-04-20T02:38:10.464Z,20.60
2023-04-20T02:53:13.232Z,22.60
2023-04-20T03:08:15.848Z,29.60
2023-04-20T03:38:21.248Z,32.20
2023-04-20T03:53:24.024Z,30.80
2023-04-20T04:23:29.775Z,25.30
2023-04-20T04:38:33.580Z,29.90
2023-04-20T04:53:37.054Z,32.90
2023-04-20T05:08:40.568Z,31.60
2023-04-20T05:23:44.273Z,35.50
2023-04-20T05:38:47.216Z,31.70
2023-04-20T05:53:49.867Z,33.70
2023-04-20T06:23:55.929Z,33.50
2023-04-20T07:09:04.941Z,37.70
2023-04-20T07:24:07.580Z,40.60
2023-04-20T07:39:10.224Z,40.40
2023-04-20T08:09:15.865Z,43.00
2023-04-20T08:24:19.288Z,45.20
2023-04-20T08:39:24.412Z,41.90
2023-04-20T08:54:27.467Z,47.60
2023-04-20T09:09:30.207Z,39.70
2023-04-20T09:39:40.547Z,47.60
2023-04-20T09:54:43.986Z,42.80
2023-04-20T10:09:46.732Z,49.80
2023-04-20T10:24:49.340Z,40.60
2023-04-20T10:39:51.929Z,34.80
2023-04-20T10:54:54.501Z,37.70
2023-04-20T11:09:57.856Z,37.50
2023-04-20T11:25:09.266Z,36.60
2023-04-20T11:40:13.331Z,37.30
2023-04-20T11:55:16.614Z,32.10
2023-04-20T12:10:19.443Z,28.70
2023-04-20T12:25:22.083Z,30.50
2023-04-20T12:40:25.000Z,34.60
2023-04-20T12:55:27.738Z,32.20
2023-04-20T13:10:30.664Z,25.30
2023-04-20T13:25:33.815Z,27.10
2023-04-20T13:40:36.475Z,25.20
2023-04-20T13:55:39.135Z,26.70
2023-04-20T14:10:42.424Z,19.60
2023-04-20T14:25:45.325Z,18.50
2023-04-20T14:40:48.576Z,20.10
2023-04-20T14:55:52.187Z,16.00
2023-04-20T15:10:57.833Z,16.60
2023-04-20T15:26:00.509Z,16.00
2023-04-20T15:41:03.142Z,22.70
2023-04-20T15:56:05.830Z,17.40
2023-04-20T16:11:08.879Z,15.80
2023-04-20T16:26:11.545Z,16.80
2023-04-20T16:41:14.667Z,20.00
2023-04-20T16:56:17.303Z,18.70
2023-04-20T17:11:20.079Z,20.80
2023-04-20T17:26:22.994Z,18.50
2023-04-20T17:41:25.832Z,17.30
2023-04-20T17:56:28.587Z,20.20
2023-04-20T18:11:31.377Z,21.00
2023-04-20T18:26:34.127Z,16.10
2023-04-20T18:41:37.632Z,18.90
2023-04-20T18:56:40.683Z,28.90
2023-04-20T19:11:43.419Z,30.00
2023-04-20T19:41:48.748Z,25.20
2023-04-20T20:26:57.681Z,30.40
2023-04-20T20:42:01.926Z,28.70
2023-04-20T20:57:04.628Z,26.50
2023-04-20T21:12:07.844Z,25.90
2023-04-20T21:57:15.811Z,29.40
2023-04-20T22:12:32.260Z,28.80
2023-04-20T22:27:39.274Z,29.30
2023-04-20T22:57:44.731Z,26.00
2023-04-20T23:12:49.024Z,26.70
2023-04-20T23:27:51.592Z,26.50
2023-04-20T23:42:55.206Z,24.20
2023-04-20T23:57:58.545Z,25.60
